sensor_id;sensor_type;location;lat;lon;timestamp;temperature;humidity
52919;DHT22;38793;52.690;6.812;2023-02-28T00:00:03;3.70;99.90
52919;DHT22;38793;52.690;6.812;2023-02-28T00:02:36;3.70;99.90
52919;DHT22;38793;52.690;6.812;2023-02-28T00:05:02;3.70;99.90
52919;DHT22;38793;52.690;6.812;2023-02-28T00:07:29;3.70;99.90
52919;DHT22;38793;52.690;6.812;2023-02-28T00:09:55;3.70;99.90
52919;DHT22;38793;52.690;6.812;2023-02-28T00:12:20;3.70;99.90
52919;DHT22;38793;52.690;6.812;2023-02-28T00:14:46;3.70;99.90
52919;DHT22;38793;52.690;6.812;2023-02-28T00:17:12;3.70;99.90
52919;DHT22;38793;52.690;6.812;2023-02-28T00:19:37;3.70;99.90
52919;DHT22;38793;52.690;6.812;2023-02-28T00:22:03;3.70;99.90
52919;DHT22;38793;52.690;6.812;2023-02-28T00:24:28;3.80;99.90
52919;DHT22;38793;52.690;6.812;2023-02-28T00:26:54;3.80;99.90
52919;DHT22;38793;52.690;6.812;2023-02-28T00:29:22;3.80;99.90
52919;DHT22;38793;52.690;6.812;2023-02-28T00:31:48;3.80;99.90
52919;DHT22;38793;52.690;6.812;2023-02-28T00:34:13;3.80;99.90
52919;DHT22;38793;52.690;6.812;2023-02-28T00:36:39;3.80;99.90
52919;DHT22;38793;52.690;6.812;2023-02-28T00:39:06;3.80;99.90
52919;DHT22;38793;52.690;6.812;2023-02-28T00:41:31;3.80;99.90
52919;DHT22;38793;52.690;6.812;2023-02-28T00:43:57;3.80;99.90
52919;DHT22;38793;52.690;6.812;2023-02-28T00:46:22;3.80;99.90
52919;DHT22;38793;52.690;6.812;2023-02-28T00:48:48;3.80;99.90
52919;DHT22;38793;52.690;6.812;2023-02-28T00:51:13;3.80;99.90
52919;DHT22;38793;52.690;6.812;2023-02-28T00:53:39;3.90;99.90
52919;DHT22;38793;52.690;6.812;2023-02-28T00:56:05;3.90;99.90
52919;DHT22;38793;52.690;6.812;2023-02-28T00:58:30;3.90;99.90
52919;DHT22;38793;52.690;6.812;2023-02-28T01:00:56;3.90;99.90
52919;DHT22;38793;52.690;6.812;2023-02-28T01:03:22;3.90;99.90
52919;DHT22;38793;52.690;6.812;2023-02-28T01:05:48;3.90;99.90
52919;DHT22;38793;52.690;6.812;2023-02-28T01:08:14;3.90;99.90
52919;DHT22;38793;52.690;6.812;2023-02-28T01:10:40;3.90;99.90
52919;DHT22;38793;52.690;6.812;2023-02-28T01:13:06;3.90;99.90
52919;DHT22;38793;52.690;6.812;2023-02-28T01:15:31;3.90;99.90
52919;DHT22;38793;52.690;6.812;2023-02-28T01:17:58;3.90;99.90
52919;DHT22;38793;52.690;6.812;2023-02-28T01:20:24;3.90;99.90
52919;DHT22;38793;52.690;6.812;2023-02-28T01:22:49;3.90;99.90
52919;DHT22;38793;52.690;6.812;2023-02-28T01:25:15;3.90;99.90
52919;DHT22;38793;52.690;6.812;2023-02-28T01:27:41;3.90;99.90
52919;DHT22;38793;52.690;6.812;2023-02-28T01:30:08;3.90;99.90
52919;DHT22;38793;52.690;6.812;2023-02-28T01:32:35;3.90;99.90
52919;DHT22;38793;52.690;6.812;2023-02-28T01:35:01;3.90;99.90
52919;DHT22;38793;52.690;6.812;2023-02-28T01:37:27;3.90;99.90
52919;DHT22;38793;52.690;6.812;2023-02-28T01:39:52;3.90;99.90
52919;DHT22;38793;52.690;6.812;2023-02-28T01:42:18;3.90;99.90
52919;DHT22;38793;52.690;6.812;2023-02-28T01:47:31;3.90;99.90
52919;DHT22;38793;52.690;6.812;2023-02-28T01:49:59;3.90;99.90
52919;DHT22;38793;52.690;6.812;2023-02-28T01:52:26;3.90;99.90
52919;DHT22;38793;52.690;6.812;2023-02-28T01:54:55;3.90;99.90
52919;DHT22;38793;52.690;6.812;2023-02-28T01:57:25;3.90;99.90
52919;DHT22;38793;52.690;6.812;2023-02-28T01:59:56;3.90;99.90
52919;DHT22;38793;52.690;6.812;2023-02-28T02:02:24;3.90;99.90
52919;DHT22;38793;52.690;6.812;2023-02-28T02:07:33;3.90;99.90
52919;DHT22;38793;52.690;6.812;2023-02-28T02:12:38;3.90;99.90
52919;DHT22;38793;52.690;6.812;2023-02-28T02:15:18;3.90;99.90
52919;DHT22;38793;52.690;6.812;2023-02-28T02:17:54;3.80;99.90
52919;DHT22;38793;52.690;6.812;2023-02-28T02:26:36;3.80;99.90
52919;DHT22;38793;52.690;6.812;2023-02-28T02:29:16;3.80;99.90
52919;DHT22;38793;52.690;6.812;2023-02-28T02:34:59;3.80;99.90
52919;DHT22;38793;52.690;6.812;2023-02-28T02:40:22;3.80;99.90
52919;DHT22;38793;52.690;6.812;2023-02-28T02:42:51;3.80;99.90
52919;DHT22;38793;52.690;6.812;2023-02-28T02:45:49;3.80;99.90
52919;DHT22;38793;52.690;6.812;2023-02-28T02:48:16;3.80;99.90
52919;DHT22;38793;52.690;6.812;2023-02-28T02:50:48;3.80;99.90
52919;DHT22;38793;52.690;6.812;2023-02-28T02:53:18;3.80;99.90
52919;DHT22;38793;52.690;6.812;2023-02-28T02:55:47;3.80;99.90
52919;DHT22;38793;52.690;6.812;2023-02-28T02:58:19;3.80;99.90
52919;DHT22;38793;52.690;6.812;2023-02-28T03:00:49;3.80;99.90
52919;DHT22;38793;52.690;6.812;2023-02-28T03:03:18;3.80;99.90
52919;DHT22;38793;52.690;6.812;2023-02-28T03:05:50;3.80;99.90
52919;DHT22;38793;52.690;6.812;2023-02-28T03:08:15;3.70;99.90
52919;DHT22;38793;52.690;6.812;2023-02-28T03:10:43;3.70;99.90
52919;DHT22;38793;52.690;6.812;2023-02-28T03:16:05;3.70;99.90
52919;DHT22;38793;52.690;6.812;2023-02-28T03:21:36;3.70;99.90
52919;DHT22;38793;52.690;6.812;2023-02-28T03:24:32;3.70;99.90
52919;DHT22;38793;52.690;6.812;2023-02-28T03:27:09;3.70;99.90
52919;DHT22;38793;52.690;6.812;2023-02-28T03:29:56;3.70;99.90
52919;DHT22;38793;52.690;6.812;2023-02-28T03:32:28;3.70;99.90
52919;DHT22;38793;52.690;6.812;2023-02-28T03:35:19;3.60;99.90
52919;DHT22;38793;52.690;6.812;2023-02-28T03:37:56;3.60;99.90
52919;DHT22;38793;52.690;6.812;2023-02-28T03:40:27;3.60;99.90
52919;DHT22;38793;52.690;6.812;2023-02-28T03:43:01;3.70;99.90
52919;DHT22;38793;52.690;6.812;2023-02-28T03:45:30;3.60;99.90
52919;DHT22;38793;52.690;6.812;2023-02-28T03:48:11;3.60;99.90
52919;DHT22;38793;52.690;6.812;2023-02-28T03:50:44;3.60;99.90
52919;DHT22;38793;52.690;6.812;2023-02-28T03:53:21;3.60;99.90
52919;DHT22;38793;52.690;6.812;2023-02-28T03:56:11;3.60;99.90
52919;DHT22;38793;52.690;6.812;2023-02-28T04:01:18;3.50;99.90
52919;DHT22;38793;52.690;6.812;2023-02-28T04:03:46;3.50;99.90
52919;DHT22;38793;52.690;6.812;2023-02-28T04:06:20;3.50;99.90
52919;DHT22;38793;52.690;6.812;2023-02-28T04:08:47;3.40;99.90
52919;DHT22;38793;52.690;6.812;2023-02-28T04:13:38;3.40;99.90
52919;DHT22;38793;52.690;6.812;2023-02-28T04:16:07;3.40;99.90
52919;DHT22;38793;52.690;6.812;2023-02-28T04:18:38;3.40;99.90
52919;DHT22;38793;52.690;6.812;2023-02-28T04:21:04;3.40;99.90
52919;DHT22;38793;52.690;6.812;2023-02-28T04:23:33;3.40;99.90
52919;DHT22;38793;52.690;6.812;2023-02-28T04:25:58;3.40;99.90
52919;DHT22;38793;52.690;6.812;2023-02-28T04:28:24;3.40;99.90
52919;DHT22;38793;52.690;6.812;2023-02-28T04:30:57;3.40;99.90
52919;DHT22;38793;52.690;6.812;2023-02-28T04:33:22;3.40;99.90
52919;DHT22;38793;52.690;6.812;2023-02-28T04:35:48;3.40;99.90
52919;DHT22;38793;52.690;6.812;2023-02-28T04:38:22;3.40;99.90
52919;DHT22;38793;52.690;6.812;2023-02-28T04:40:48;3.30;99.90
52919;DHT22;38793;52.690;6.812;2023-02-28T04:43:13;3.30;99.90
52919;DHT22;38793;52.690;6.812;2023-02-28T04:45:39;3.30;99.90
52919;DHT22;38793;52.690;6.812;2023-02-28T04:48:04;3.30;99.90
52919;DHT22;38793;52.690;6.812;2023-02-28T04:50:30;3.30;99.90
52919;DHT22;38793;52.690;6.812;2023-02-28T04:52:56;3.30;99.90
52919;DHT22;38793;52.690;6.812;2023-02-28T04:55:22;3.30;99.90
52919;DHT22;38793;52.690;6.812;2023-02-28T04:57:47;3.30;99.90
52919;DHT22;38793;52.690;6.812;2023-02-28T05:00:13;3.30;99.90
52919;DHT22;38793;52.690;6.812;2023-02-28T05:02:42;3.40;99.90
52919;DHT22;38793;52.690;6.812;2023-02-28T05:05:08;3.40;99.90
52919;DHT22;38793;52.690;6.812;2023-02-28T05:07:33;3.40;99.90
52919;DHT22;38793;52.690;6.812;2023-02-28T05:09:59;3.40;99.90
52919;DHT22;38793;52.690;6.812;2023-02-28T05:12:25;3.40;99.90
52919;DHT22;38793;52.690;6.812;2023-02-28T05:14:50;3.40;99.90
52919;DHT22;38793;52.690;6.812;2023-02-28T05:17:16;3.40;99.90
52919;DHT22;38793;52.690;6.812;2023-02-28T05:19:42;3.40;99.90
52919;DHT22;38793;52.690;6.812;2023-02-28T05:22:13;3.40;99.90
52919;DHT22;38793;52.690;6.812;2023-02-28T05:24:40;3.40;99.90
52919;DHT22;38793;52.690;6.812;2023-02-28T05:27:08;3.40;99.90
52919;DHT22;38793;52.690;6.812;2023-02-28T05:29:33;3.40;99.90
52919;DHT22;38793;52.690;6.812;2023-02-28T05:31:59;3.40;99.90
52919;DHT22;38793;52.690;6.812;2023-02-28T05:34:25;3.40;99.90
52919;DHT22;38793;52.690;6.812;2023-02-28T05:36:50;3.40;99.90
52919;DHT22;38793;52.690;6.812;2023-02-28T05:39:16;3.40;99.90
52919;DHT22;38793;52.690;6.812;2023-02-28T05:41:43;3.40;99.90
52919;DHT22;38793;52.690;6.812;2023-02-28T05:44:09;3.50;99.90
52919;DHT22;38793;52.690;6.812;2023-02-28T05:46:34;3.50;99.90
52919;DHT22;38793;52.690;6.812;2023-02-28T05:49:00;3.40;99.90
52919;DHT22;38793;52.690;6.812;2023-02-28T05:51:26;3.50;99.90
52919;DHT22;38793;52.690;6.812;2023-02-28T05:53:51;3.40;99.90
52919;DHT22;38793;52.690;6.812;2023-02-28T05:56:17;3.40;99.90
52919;DHT22;38793;52.690;6.812;2023-02-28T05:58:42;3.40;99.90
52919;DHT22;38793;52.690;6.812;2023-02-28T06:04:02;3.40;99.90
52919;DHT22;38793;52.690;6.812;2023-02-28T06:06:28;3.50;99.90
52919;DHT22;38793;52.690;6.812;2023-02-28T06:08:55;3.40;99.90
52919;DHT22;38793;52.690;6.812;2023-02-28T06:11:20;3.40;99.90
52919;DHT22;38793;52.690;6.812;2023-02-28T06:13:49;3.40;99.90
52919;DHT22;38793;52.690;6.812;2023-02-28T06:16:15;3.30;99.90
52919;DHT22;38793;52.690;6.812;2023-02-28T06:18:40;3.30;99.90
52919;DHT22;38793;52.690;6.812;2023-02-28T06:21:06;3.30;99.90
52919;DHT22;38793;52.690;6.812;2023-02-28T06:23:31;3.30;99.90
52919;DHT22;38793;52.690;6.812;2023-02-28T06:25:57;3.30;99.90
52919;DHT22;38793;52.690;6.812;2023-02-28T06:28:25;3.30;99.90
52919;DHT22;38793;52.690;6.812;2023-02-28T06:30:51;3.30;99.90
52919;DHT22;38793;52.690;6.812;2023-02-28T06:33:16;3.30;99.90
52919;DHT22;38793;52.690;6.812;2023-02-28T06:35:47;3.30;99.90
52919;DHT22;38793;52.690;6.812;2023-02-28T06:38:15;3.40;99.90
52919;DHT22;38793;52.690;6.812;2023-02-28T06:40:41;3.40;99.90
52919;DHT22;38793;52.690;6.812;2023-02-28T06:43:06;3.40;99.90
52919;DHT22;38793;52.690;6.812;2023-02-28T06:45:32;3.30;99.90
52919;DHT22;38793;52.690;6.812;2023-02-28T06:47:58;3.30;99.90
52919;DHT22;38793;52.690;6.812;2023-02-28T06:50:25;3.30;99.90
52919;DHT22;38793;52.690;6.812;2023-02-28T06:52:51;3.40;99.90
52919;DHT22;38793;52.690;6.812;2023-02-28T06:55:19;3.30;99.90
52919;DHT22;38793;52.690;6.812;2023-02-28T06:57:45;3.40;99.90
52919;DHT22;38793;52.690;6.812;2023-02-28T07:00:11;3.40;99.90
52919;DHT22;38793;52.690;6.812;2023-02-28T07:02:37;3.40;99.90
52919;DHT22;38793;52.690;6.812;2023-02-28T07:05:04;3.50;99.90
52919;DHT22;38793;52.690;6.812;2023-02-28T07:07:30;3.50;99.90
52919;DHT22;38793;52.690;6.812;2023-02-28T07:09:55;3.50;99.90
52919;DHT22;38793;52.690;6.812;2023-02-28T07:12:21;3.60;99.90
52919;DHT22;38793;52.690;6.812;2023-02-28T07:14:47;3.60;99.90
52919;DHT22;38793;52.690;6.812;2023-02-28T07:17:13;3.60;99.90
52919;DHT22;38793;52.690;6.812;2023-02-28T07:19:39;3.60;99.90
52919;DHT22;38793;52.690;6.812;2023-02-28T07:22:05;3.70;99.90
52919;DHT22;38793;52.690;6.812;2023-02-28T07:24:31;3.70;99.90
52919;DHT22;38793;52.690;6.812;2023-02-28T07:26:57;3.80;99.90
52919;DHT22;38793;52.690;6.812;2023-02-28T07:29:22;3.80;99.90
52919;DHT22;38793;52.690;6.812;2023-02-28T07:31:48;3.80;99.90
52919;DHT22;38793;52.690;6.812;2023-02-28T07:34:16;3.70;99.90
52919;DHT22;38793;52.690;6.812;2023-02-28T07:36:41;3.70;99.90
52919;DHT22;38793;52.690;6.812;2023-02-28T07:39:07;3.70;99.90
52919;DHT22;38793;52.690;6.812;2023-02-28T07:41:36;3.70;99.90
52919;DHT22;38793;52.690;6.812;2023-02-28T07:44:09;3.70;99.90
52919;DHT22;38793;52.690;6.812;2023-02-28T07:46:35;3.80;99.90
52919;DHT22;38793;52.690;6.812;2023-02-28T07:49:01;3.80;99.90
52919;DHT22;38793;52.690;6.812;2023-02-28T07:51:29;3.80;99.90
52919;DHT22;38793;52.690;6.812;2023-02-28T07:53:54;3.80;99.90
52919;DHT22;38793;52.690;6.812;2023-02-28T07:56:20;3.80;99.90
52919;DHT22;38793;52.690;6.812;2023-02-28T07:58:46;3.80;99.90
52919;DHT22;38793;52.690;6.812;2023-02-28T08:01:12;3.80;99.90
52919;DHT22;38793;52.690;6.812;2023-02-28T08:03:39;3.80;99.90
52919;DHT22;38793;52.690;6.812;2023-02-28T08:06:06;3.80;99.90
52919;DHT22;38793;52.690;6.812;2023-02-28T08:08:32;3.80;99.90
52919;DHT22;38793;52.690;6.812;2023-02-28T08:11:02;3.80;99.90
52919;DHT22;38793;52.690;6.812;2023-02-28T08:13:29;3.90;99.90
52919;DHT22;38793;52.690;6.812;2023-02-28T08:15:55;3.90;99.90
52919;DHT22;38793;52.690;6.812;2023-02-28T08:18:21;3.90;99.90
52919;DHT22;38793;52.690;6.812;2023-02-28T08:20:47;4.00;99.90
52919;DHT22;38793;52.690;6.812;2023-02-28T08:23:13;4.10;99.90
52919;DHT22;38793;52.690;6.812;2023-02-28T08:25:39;4.20;99.90
52919;DHT22;38793;52.690;6.812;2023-02-28T08:28:04;4.30;99.90
52919;DHT22;38793;52.690;6.812;2023-02-28T08:30:30;4.40;99.90
52919;DHT22;38793;52.690;6.812;2023-02-28T08:32:56;4.60;99.90
52919;DHT22;38793;52.690;6.812;2023-02-28T08:35:22;4.60;99.90
52919;DHT22;38793;52.690;6.812;2023-02-28T08:37:48;4.70;99.90
52919;DHT22;38793;52.690;6.812;2023-02-28T08:40:14;4.80;99.90
52919;DHT22;38793;52.690;6.812;2023-02-28T08:42:44;4.90;99.90
52919;DHT22;38793;52.690;6.812;2023-02-28T08:45:11;5.00;99.90
52919;DHT22;38793;52.690;6.812;2023-02-28T08:47:37;5.20;99.90
52919;DHT22;38793;52.690;6.812;2023-02-28T08:50:03;5.30;99.90
52919;DHT22;38793;52.690;6.812;2023-02-28T08:52:28;5.50;99.90
52919;DHT22;38793;52.690;6.812;2023-02-28T08:54:54;5.60;99.90
52919;DHT22;38793;52.690;6.812;2023-02-28T08:57:19;5.70;99.90
52919;DHT22;38793;52.690;6.812;2023-02-28T08:59:45;5.80;99.90
52919;DHT22;38793;52.690;6.812;2023-02-28T09:02:14;5.80;99.90
52919;DHT22;38793;52.690;6.812;2023-02-28T09:04:40;5.80;99.90
52919;DHT22;38793;52.690;6.812;2023-02-28T09:07:07;5.90;99.90
52919;DHT22;38793;52.690;6.812;2023-02-28T09:09:32;6.00;99.90
52919;DHT22;38793;52.690;6.812;2023-02-28T09:11:58;6.00;99.90
52919;DHT22;38793;52.690;6.812;2023-02-28T09:14:24;6.00;99.80
52919;DHT22;38793;52.690;6.812;2023-02-28T09:16:49;6.00;99.90
52919;DHT22;38793;52.690;6.812;2023-02-28T09:19:15;6.00;99.90
52919;DHT22;38793;52.690;6.812;2023-02-28T09:21:41;6.00;97.90
52919;DHT22;38793;52.690;6.812;2023-02-28T09:24:07;5.90;98.30
52919;DHT22;38793;52.690;6.812;2023-02-28T09:26:33;5.90;98.50
52919;DHT22;38793;52.690;6.812;2023-02-28T09:29:00;5.90;98.20
52919;DHT22;38793;52.690;6.812;2023-02-28T09:31:27;5.90;97.00
52919;DHT22;38793;52.690;6.812;2023-02-28T09:33:56;5.90;96.30
52919;DHT22;38793;52.690;6.812;2023-02-28T09:36:23;6.00;96.40
52919;DHT22;38793;52.690;6.812;2023-02-28T09:38:49;6.10;95.90
52919;DHT22;38793;52.690;6.812;2023-02-28T09:41:21;6.20;96.30
52919;DHT22;38793;52.690;6.812;2023-02-28T09:43:53;6.30;96.20
52919;DHT22;38793;52.690;6.812;2023-02-28T09:46:44;6.20;95.40
52919;DHT22;38793;52.690;6.812;2023-02-28T09:49:18;6.20;94.60
52919;DHT22;38793;52.690;6.812;2023-02-28T09:51:53;6.20;94.00
52919;DHT22;38793;52.690;6.812;2023-02-28T09:54:22;6.20;94.60
52919;DHT22;38793;52.690;6.812;2023-02-28T09:59:53;6.30;93.80
52919;DHT22;38793;52.690;6.812;2023-02-28T10:04:57;6.40;94.30
52919;DHT22;38793;52.690;6.812;2023-02-28T10:07:37;6.50;95.00
52919;DHT22;38793;52.690;6.812;2023-02-28T10:12:47;6.70;94.00
52919;DHT22;38793;52.690;6.812;2023-02-28T10:15:14;6.70;92.80
52919;DHT22;38793;52.690;6.812;2023-02-28T10:17:44;6.80;93.50
52919;DHT22;38793;52.690;6.812;2023-02-28T10:20:14;6.80;93.00
52919;DHT22;38793;52.690;6.812;2023-02-28T10:25:45;6.90;92.50
52919;DHT22;38793;52.690;6.812;2023-02-28T10:28:17;7.00;92.50
52919;DHT22;38793;52.690;6.812;2023-02-28T10:30:50;7.10;92.50
52919;DHT22;38793;52.690;6.812;2023-02-28T10:35:44;7.20;91.00
52919;DHT22;38793;52.690;6.812;2023-02-28T10:38:17;7.20;91.20
52919;DHT22;38793;52.690;6.812;2023-02-28T10:40:43;7.20;91.40
52919;DHT22;38793;52.690;6.812;2023-02-28T10:58:55;7.70;90.80
52919;DHT22;38793;52.690;6.812;2023-02-28T11:04:00;7.60;88.10
52919;DHT22;38793;52.690;6.812;2023-02-28T11:06:31;7.50;88.10
52919;DHT22;38793;52.690;6.812;2023-02-28T11:09:04;7.40;88.20
52919;DHT22;38793;52.690;6.812;2023-02-28T11:11:42;7.50;87.20
52919;DHT22;38793;52.690;6.812;2023-02-28T11:14:14;7.60;86.10
52919;DHT22;38793;52.690;6.812;2023-02-28T11:16:42;7.50;85.10
52919;DHT22;38793;52.690;6.812;2023-02-28T11:19:22;7.50;87.10
52919;DHT22;38793;52.690;6.812;2023-02-28T11:21:59;7.50;87.30
52919;DHT22;38793;52.690;6.812;2023-02-28T11:24:43;7.60;89.50
52919;DHT22;38793;52.690;6.812;2023-02-28T11:30:00;7.80;87.80
52919;DHT22;38793;52.690;6.812;2023-02-28T11:32:27;7.90;87.80
52919;DHT22;38793;52.690;6.812;2023-02-28T11:35:16;8.00;86.60
52919;DHT22;38793;52.690;6.812;2023-02-28T11:37:42;8.10;86.80
52919;DHT22;38793;52.690;6.812;2023-02-28T11:40:15;8.00;88.10
52919;DHT22;38793;52.690;6.812;2023-02-28T11:42:49;7.80;86.00
52919;DHT22;38793;52.690;6.812;2023-02-28T11:48:04;7.70;86.30
52919;DHT22;38793;52.690;6.812;2023-02-28T12:04:12;7.60;88.60
52919;DHT22;38793;52.690;6.812;2023-02-28T12:06:50;7.80;87.30
52919;DHT22;38793;52.690;6.812;2023-02-28T12:09:46;7.90;87.80
52919;DHT22;38793;52.690;6.812;2023-02-28T12:20:53;8.30;88.70
52919;DHT22;38793;52.690;6.812;2023-02-28T12:28:51;8.20;87.50
52919;DHT22;38793;52.690;6.812;2023-02-28T12:31:24;8.30;87.90
52919;DHT22;38793;52.690;6.812;2023-02-28T12:34:04;8.50;87.90
52919;DHT22;38793;52.690;6.812;2023-02-28T12:36:31;8.70;88.20
52919;DHT22;38793;52.690;6.812;2023-02-28T12:39:08;8.80;86.50
52919;DHT22;38793;52.690;6.812;2023-02-28T12:41:46;8.80;85.90
52919;DHT22;38793;52.690;6.812;2023-02-28T12:44:14;8.90;85.90
52919;DHT22;38793;52.690;6.812;2023-02-28T12:46:44;8.90;82.90
52919;DHT22;38793;52.690;6.812;2023-02-28T12:49:19;9.00;84.30
52919;DHT22;38793;52.690;6.812;2023-02-28T12:51:47;8.90;81.00
52919;DHT22;38793;52.690;6.812;2023-02-28T12:54:29;8.70;82.70
52919;DHT22;38793;52.690;6.812;2023-02-28T13:10:46;8.60;78.80
52919;DHT22;38793;52.690;6.812;2023-02-28T13:13:17;8.70;83.50
52919;DHT22;38793;52.690;6.812;2023-02-28T13:20:55;8.80;84.50
52919;DHT22;38793;52.690;6.812;2023-02-28T13:26:07;9.00;81.50
52919;DHT22;38793;52.690;6.812;2023-02-28T13:28:59;9.00;82.10
52919;DHT22;38793;52.690;6.812;2023-02-28T13:31:25;9.10;81.80
52919;DHT22;38793;52.690;6.812;2023-02-28T13:38:49;9.30;80.70
52919;DHT22;38793;52.690;6.812;2023-02-28T13:46:31;9.60;82.00
52919;DHT22;38793;52.690;6.812;2023-02-28T13:51:50;9.60;78.10
52919;DHT22;38793;52.690;6.812;2023-02-28T13:54:18;9.40;80.40
52919;DHT22;38793;52.690;6.812;2023-02-28T14:05:39;9.00;78.30
52919;DHT22;38793;52.690;6.812;2023-02-28T14:10:36;9.10;76.30
52919;DHT22;38793;52.690;6.812;2023-02-28T14:13:14;9.10;76.30
52919;DHT22;38793;52.690;6.812;2023-02-28T14:15:49;9.00;76.20
52919;DHT22;38793;52.690;6.812;2023-02-28T14:18:30;9.00;73.70
52919;DHT22;38793;52.690;6.812;2023-02-28T14:29:43;9.20;75.80
52919;DHT22;38793;52.690;6.812;2023-02-28T14:34:55;9.20;75.20
52919;DHT22;38793;52.690;6.812;2023-02-28T14:37:30;9.20;73.40
52919;DHT22;38793;52.690;6.812;2023-02-28T14:39:58;9.30;72.70
52919;DHT22;38793;52.690;6.812;2023-02-28T14:42:35;9.40;72.60
52919;DHT22;38793;52.690;6.812;2023-02-28T14:45:01;9.20;72.30
52919;DHT22;38793;52.690;6.812;2023-02-28T14:47:31;9.10;73.20
52919;DHT22;38793;52.690;6.812;2023-02-28T14:49:58;9.00;73.90
52919;DHT22;38793;52.690;6.812;2023-02-28T14:52:31;9.10;74.70
52919;DHT22;38793;52.690;6.812;2023-02-28T14:55:00;9.20;74.30
52919;DHT22;38793;52.690;6.812;2023-02-28T14:57:34;9.30;73.40
52919;DHT22;38793;52.690;6.812;2023-02-28T15:00:06;9.40;73.10
52919;DHT22;38793;52.690;6.812;2023-02-28T15:02:39;9.50;71.50
52919;DHT22;38793;52.690;6.812;2023-02-28T15:07:43;9.10;71.70
52919;DHT22;38793;52.690;6.812;2023-02-28T15:12:51;8.90;72.40
52919;DHT22;38793;52.690;6.812;2023-02-28T15:15:18;8.80;74.20
52919;DHT22;38793;52.690;6.812;2023-02-28T15:17:44;8.80;74.50
52919;DHT22;38793;52.690;6.812;2023-02-28T15:20:12;8.90;73.60
52919;DHT22;38793;52.690;6.812;2023-02-28T15:22:39;9.00;73.30
52919;DHT22;38793;52.690;6.812;2023-02-28T15:25:05;9.20;74.00
52919;DHT22;38793;52.690;6.812;2023-02-28T15:27:36;9.40;73.30
52919;DHT22;38793;52.690;6.812;2023-02-28T15:30:15;9.80;72.40
52919;DHT22;38793;52.690;6.812;2023-02-28T15:32:42;10.00;71.90
52919;DHT22;38793;52.690;6.812;2023-02-28T15:35:37;9.90;70.70
52919;DHT22;38793;52.690;6.812;2023-02-28T15:38:25;9.90;70.40
52919;DHT22;38793;52.690;6.812;2023-02-28T15:40:52;10.10;70.40
52919;DHT22;38793;52.690;6.812;2023-02-28T15:43:25;10.60;70.60
52919;DHT22;38793;52.690;6.812;2023-02-28T15:46:07;10.90;69.50
52919;DHT22;38793;52.690;6.812;2023-02-28T15:48:53;11.20;69.50
52919;DHT22;38793;52.690;6.812;2023-02-28T15:51:24;11.70;68.70
52919;DHT22;38793;52.690;6.812;2023-02-28T15:53:56;12.10;69.70
52919;DHT22;38793;52.690;6.812;2023-02-28T15:56:26;12.60;67.20
52919;DHT22;38793;52.690;6.812;2023-02-28T15:58:56;12.70;66.40
52919;DHT22;38793;52.690;6.812;2023-02-28T16:01:31;13.00;66.60
52919;DHT22;38793;52.690;6.812;2023-02-28T16:04:01;13.50;66.30
52919;DHT22;38793;52.690;6.812;2023-02-28T16:06:42;13.80;64.70
52919;DHT22;38793;52.690;6.812;2023-02-28T16:09:13;14.40;63.00
52919;DHT22;38793;52.690;6.812;2023-02-28T16:11:46;14.80;61.40
52919;DHT22;38793;52.690;6.812;2023-02-28T16:14:20;14.90;60.90
52919;DHT22;38793;52.690;6.812;2023-02-28T16:16:51;14.60;60.80
52919;DHT22;38793;52.690;6.812;2023-02-28T16:19:18;14.40;61.00
52919;DHT22;38793;52.690;6.812;2023-02-28T16:21:44;14.10;61.40
52919;DHT22;38793;52.690;6.812;2023-02-28T16:24:09;13.90;60.10
52919;DHT22;38793;52.690;6.812;2023-02-28T16:26:36;13.70;62.80
52919;DHT22;38793;52.690;6.812;2023-02-28T16:29:05;13.40;61.90
52919;DHT22;38793;52.690;6.812;2023-02-28T16:31:34;13.30;62.80
52919;DHT22;38793;52.690;6.812;2023-02-28T16:34:00;13.20;62.50
52919;DHT22;38793;52.690;6.812;2023-02-28T16:36:26;12.90;61.70
52919;DHT22;38793;52.690;6.812;2023-02-28T16:38:51;12.30;62.10
52919;DHT22;38793;52.690;6.812;2023-02-28T16:41:20;11.70;62.80
52919;DHT22;38793;52.690;6.812;2023-02-28T16:43:48;11.10;63.90
52919;DHT22;38793;52.690;6.812;2023-02-28T16:46:15;10.50;64.90
52919;DHT22;38793;52.690;6.812;2023-02-28T16:48:42;10.00;65.50
52919;DHT22;38793;52.690;6.812;2023-02-28T16:51:13;9.60;66.30
52919;DHT22;38793;52.690;6.812;2023-02-28T16:53:39;9.30;67.00
52919;DHT22;38793;52.690;6.812;2023-02-28T16:56:05;9.00;67.90
52919;DHT22;38793;52.690;6.812;2023-02-28T16:58:32;8.80;68.60
52919;DHT22;38793;52.690;6.812;2023-02-28T17:01:01;8.60;69.20
52919;DHT22;38793;52.690;6.812;2023-02-28T17:03:27;8.30;69.00
52919;DHT22;38793;52.690;6.812;2023-02-28T17:05:53;8.10;69.80
52919;DHT22;38793;52.690;6.812;2023-02-28T17:08:19;7.90;70.70
52919;DHT22;38793;52.690;6.812;2023-02-28T17:10:45;7.80;71.30
52919;DHT22;38793;52.690;6.812;2023-02-28T17:13:11;7.60;71.80
52919;DHT22;38793;52.690;6.812;2023-02-28T17:15:37;7.50;72.30
52919;DHT22;38793;52.690;6.812;2023-02-28T17:18:03;7.30;72.80
52919;DHT22;38793;52.690;6.812;2023-02-28T17:20:29;7.20;73.60
52919;DHT22;38793;52.690;6.812;2023-02-28T17:22:56;7.10;74.50
52919;DHT22;38793;52.690;6.812;2023-02-28T17:25:22;7.00;74.80
52919;DHT22;38793;52.690;6.812;2023-02-28T17:27:48;6.80;75.10
52919;DHT22;38793;52.690;6.812;2023-02-28T17:30:23;6.80;76.80
52919;DHT22;38793;52.690;6.812;2023-02-28T17:32:49;6.70;76.90
52919;DHT22;38793;52.690;6.812;2023-02-28T17:35:15;6.60;76.70
52919;DHT22;38793;52.690;6.812;2023-02-28T17:37:41;6.50;77.00
52919;DHT22;38793;52.690;6.812;2023-02-28T17:40:17;6.50;77.70
52919;DHT22;38793;52.690;6.812;2023-02-28T17:42:43;6.50;78.20
52919;DHT22;38793;52.690;6.812;2023-02-28T17:45:09;6.30;78.60
52919;DHT22;38793;52.690;6.812;2023-02-28T17:47:35;6.30;80.50
52919;DHT22;38793;52.690;6.812;2023-02-28T17:50:01;6.30;80.80
52919;DHT22;38793;52.690;6.812;2023-02-28T17:52:27;6.20;81.30
52919;DHT22;38793;52.690;6.812;2023-02-28T17:54:54;6.20;81.30
52919;DHT22;38793;52.690;6.812;2023-02-28T17:57:20;6.10;81.50
52919;DHT22;38793;52.690;6.812;2023-02-28T17:59:46;6.00;82.10
52919;DHT22;38793;52.690;6.812;2023-02-28T18:02:12;6.00;82.90
52919;DHT22;38793;52.690;6.812;2023-02-28T18:04:38;5.90;84.40
52919;DHT22;38793;52.690;6.812;2023-02-28T18:07:05;5.80;85.10
52919;DHT22;38793;52.690;6.812;2023-02-28T18:09:31;5.70;85.80
52919;DHT22;38793;52.690;6.812;2023-02-28T18:11:57;5.60;87.60
52919;DHT22;38793;52.690;6.812;2023-02-28T18:14:24;5.50;90.10
52919;DHT22;38793;52.690;6.812;2023-02-28T18:16:51;5.30;90.50
52919;DHT22;38793;52.690;6.812;2023-02-28T18:19:17;5.10;91.10
52919;DHT22;38793;52.690;6.812;2023-02-28T18:21:44;4.90;92.20
52919;DHT22;38793;52.690;6.812;2023-02-28T18:24:10;4.60;93.00
52919;DHT22;38793;52.690;6.812;2023-02-28T18:26:38;4.40;93.90
52919;DHT22;38793;52.690;6.812;2023-02-28T18:29:05;4.30;94.90
52919;DHT22;38793;52.690;6.812;2023-02-28T18:31:30;4.20;96.10
52919;DHT22;38793;52.690;6.812;2023-02-28T18:33:59;4.10;97.60
52919;DHT22;38793;52.690;6.812;2023-02-28T18:36:26;4.00;98.80